sensor_id;sensor_type;location;lat;lon;timestamp;temperature;humidity
22544;DHT22;11438;52.044;8.716;2023-12-14T00:01:13;10.20;99.90
22544;DHT22;11438;52.044;8.716;2023-12-14T00:03:39;10.10;99.90
22544;DHT22;11438;52.044;8.716;2023-12-14T00:06:10;10.20;99.90
22544;DHT22;11438;52.044;8.716;2023-12-14T00:08:35;10.10;99.90
22544;DHT22;11438;52.044;8.716;2023-12-14T00:11:09;10.10;99.90
22544;DHT22;11438;52.044;8.716;2023-12-14T00:13:34;10.10;99.90
22544;DHT22;11438;52.044;8.716;2023-12-14T00:16:00;10.10;99.90
22544;DHT22;11438;52.044;8.716;2023-12-14T00:18:26;10.00;99.90
22544;DHT22;11438;52.044;8.716;2023-12-14T00:20:52;10.00;99.90
22544;DHT22;11438;52.044;8.716;2023-12-14T00:23:19;10.00;99.90
22544;DHT22;11438;52.044;8.716;2023-12-14T00:25:45;10.00;99.90
22544;DHT22;11438;52.044;8.716;2023-12-14T00:28:10;10.00;99.90
22544;DHT22;11438;52.044;8.716;2023-12-14T00:30:36;9.90;99.90
22544;DHT22;11438;52.044;8.716;2023-12-14T00:33:01;9.90;99.90
22544;DHT22;11438;52.044;8.716;2023-12-14T00:35:27;9.90;99.90
22544;DHT22;11438;52.044;8.716;2023-12-14T00:37:52;9.90;99.90
22544;DHT22;11438;52.044;8.716;2023-12-14T00:40:18;9.80;99.90
22544;DHT22;11438;52.044;8.716;2023-12-14T00:42:43;9.90;99.90
22544;DHT22;11438;52.044;8.716;2023-12-14T00:45:09;9.80;99.90
22544;DHT22;11438;52.044;8.716;2023-12-14T00:47:35;9.80;99.90
22544;DHT22;11438;52.044;8.716;2023-12-14T00:50:00;9.80;99.90
22544;DHT22;11438;52.044;8.716;2023-12-14T00:52:26;9.80;99.90
22544;DHT22;11438;52.044;8.716;2023-12-14T00:54:52;9.80;99.90
22544;DHT22;11438;52.044;8.716;2023-12-14T00:57:17;9.80;99.90
22544;DHT22;11438;52.044;8.716;2023-12-14T00:59:43;9.80;99.90
22544;DHT22;11438;52.044;8.716;2023-12-14T01:02:08;9.80;99.90
22544;DHT22;11438;52.044;8.716;2023-12-14T01:04:34;9.80;99.90
22544;DHT22;11438;52.044;8.716;2023-12-14T01:06:59;9.70;99.90
22544;DHT22;11438;52.044;8.716;2023-12-14T01:09:25;9.70;99.90
22544;DHT22;11438;52.044;8.716;2023-12-14T01:11:51;9.70;99.90
22544;DHT22;11438;52.044;8.716;2023-12-14T01:14:16;9.70;99.90
22544;DHT22;11438;52.044;8.716;2023-12-14T01:16:42;9.70;99.90
22544;DHT22;11438;52.044;8.716;2023-12-14T01:19:07;9.70;99.90
22544;DHT22;11438;52.044;8.716;2023-12-14T01:21:33;9.70;99.90
22544;DHT22;11438;52.044;8.716;2023-12-14T01:23:59;9.60;99.90
22544;DHT22;11438;52.044;8.716;2023-12-14T01:26:26;9.60;99.90
22544;DHT22;11438;52.044;8.716;2023-12-14T01:28:52;9.60;99.90
22544;DHT22;11438;52.044;8.716;2023-12-14T01:31:17;9.60;99.90
22544;DHT22;11438;52.044;8.716;2023-12-14T01:33:43;9.60;99.90
22544;DHT22;11438;52.044;8.716;2023-12-14T01:36:08;9.50;99.90
22544;DHT22;11438;52.044;8.716;2023-12-14T01:38:34;9.50;99.90
22544;DHT22;11438;52.044;8.716;2023-12-14T01:40:59;9.40;99.90
22544;DHT22;11438;52.044;8.716;2023-12-14T01:43:25;9.40;99.90
22544;DHT22;11438;52.044;8.716;2023-12-14T01:45:51;9.40;99.90
22544;DHT22;11438;52.044;8.716;2023-12-14T01:48:16;9.30;99.90
22544;DHT22;11438;52.044;8.716;2023-12-14T01:50:42;9.30;99.90
22544;DHT22;11438;52.044;8.716;2023-12-14T01:53:07;9.30;99.90
22544;DHT22;11438;52.044;8.716;2023-12-14T01:55:33;9.30;99.90
22544;DHT22;11438;52.044;8.716;2023-12-14T01:57:59;9.30;99.90
22544;DHT22;11438;52.044;8.716;2023-12-14T02:00:36;9.30;99.90
22544;DHT22;11438;52.044;8.716;2023-12-14T02:03:03;9.20;99.90
22544;DHT22;11438;52.044;8.716;2023-12-14T02:05:29;9.20;99.90
22544;DHT22;11438;52.044;8.716;2023-12-14T02:07:54;9.20;99.90
22544;DHT22;11438;52.044;8.716;2023-12-14T02:10:20;9.10;99.90
22544;DHT22;11438;52.044;8.716;2023-12-14T02:12:45;9.10;99.90
22544;DHT22;11438;52.044;8.716;2023-12-14T02:15:11;9.10;99.90
22544;DHT22;11438;52.044;8.716;2023-12-14T02:17:37;9.10;99.90
22544;DHT22;11438;52.044;8.716;2023-12-14T02:20:03;9.10;99.90
22544;DHT22;11438;52.044;8.716;2023-12-14T02:22:40;9.10;99.90
22544;DHT22;11438;52.044;8.716;2023-12-14T02:25:13;9.00;99.90
22544;DHT22;11438;52.044;8.716;2023-12-14T02:27:38;9.00;99.90
22544;DHT22;11438;52.044;8.716;2023-12-14T02:30:04;9.00;99.90
22544;DHT22;11438;52.044;8.716;2023-12-14T02:32:29;9.00;99.90
22544;DHT22;11438;52.044;8.716;2023-12-14T02:34:55;9.00;99.90
22544;DHT22;11438;52.044;8.716;2023-12-14T02:37:20;9.00;99.90
22544;DHT22;11438;52.044;8.716;2023-12-14T02:39:46;9.00;99.90
22544;DHT22;11438;52.044;8.716;2023-12-14T02:42:12;9.10;99.90
22544;DHT22;11438;52.044;8.716;2023-12-14T02:44:38;9.10;99.90
22544;DHT22;11438;52.044;8.716;2023-12-14T02:47:03;9.10;99.90
22544;DHT22;11438;52.044;8.716;2023-12-14T02:49:29;9.10;99.90
22544;DHT22;11438;52.044;8.716;2023-12-14T02:51:54;9.10;99.90
22544;DHT22;11438;52.044;8.716;2023-12-14T02:54:20;9.10;99.90
22544;DHT22;11438;52.044;8.716;2023-12-14T02:56:45;9.10;99.90
22544;DHT22;11438;52.044;8.716;2023-12-14T02:59:11;9.10;99.90
22544;DHT22;11438;52.044;8.716;2023-12-14T03:01:36;9.10;99.90
22544;DHT22;11438;52.044;8.716;2023-12-14T03:04:02;9.10;99.90
22544;DHT22;11438;52.044;8.716;2023-12-14T03:06:27;9.10;99.90
22544;DHT22;11438;52.044;8.716;2023-12-14T03:08:53;9.10;99.90
22544;DHT22;11438;52.044;8.716;2023-12-14T03:11:22;9.10;99.90
22544;DHT22;11438;52.044;8.716;2023-12-14T03:13:51;9.10;99.90
22544;DHT22;11438;52.044;8.716;2023-12-14T03:16:17;9.10;99.90
22544;DHT22;11438;52.044;8.716;2023-12-14T03:18:43;9.10;99.90
22544;DHT22;11438;52.044;8.716;2023-12-14T03:21:09;9.10;99.90
22544;DHT22;11438;52.044;8.716;2023-12-14T03:23:35;9.10;99.90
22544;DHT22;11438;52.044;8.716;2023-12-14T03:26:01;9.10;99.90
22544;DHT22;11438;52.044;8.716;2023-12-14T03:28:27;9.10;99.90
22544;DHT22;11438;52.044;8.716;2023-12-14T03:30:52;9.00;99.90
22544;DHT22;11438;52.044;8.716;2023-12-14T03:33:18;9.00;99.90
22544;DHT22;11438;52.044;8.716;2023-12-14T03:35:43;9.00;99.90
22544;DHT22;11438;52.044;8.716;2023-12-14T03:38:09;9.00;99.90
22544;DHT22;11438;52.044;8.716;2023-12-14T03:40:35;8.90;99.90
22544;DHT22;11438;52.044;8.716;2023-12-14T03:43:01;8.90;99.90
22544;DHT22;11438;52.044;8.716;2023-12-14T03:45:28;8.90;99.90
22544;DHT22;11438;52.044;8.716;2023-12-14T03:47:54;8.80;99.90
22544;DHT22;11438;52.044;8.716;2023-12-14T03:50:19;8.80;99.90
22544;DHT22;11438;52.044;8.716;2023-12-14T03:52:45;8.80;99.90
22544;DHT22;11438;52.044;8.716;2023-12-14T03:55:10;8.80;99.90
22544;DHT22;11438;52.044;8.716;2023-12-14T03:57:36;8.80;99.90
22544;DHT22;11438;52.044;8.716;2023-12-14T04:00:01;8.70;99.90
22544;DHT22;11438;52.044;8.716;2023-12-14T04:02:27;8.70;99.90
22544;DHT22;11438;52.044;8.716;2023-12-14T04:04:53;8.70;99.90
22544;DHT22;11438;52.044;8.716;2023-12-14T04:07:18;8.70;99.90
22544;DHT22;11438;52.044;8.716;2023-12-14T04:09:45;8.70;99.90
22544;DHT22;11438;52.044;8.716;2023-12-14T04:12:11;8.70;99.90
22544;DHT22;11438;52.044;8.716;2023-12-14T04:14:36;8.70;99.90
22544;DHT22;11438;52.044;8.716;2023-12-14T04:17:02;8.70;99.90
22544;DHT22;11438;52.044;8.716;2023-12-14T04:19:27;8.70;99.90
22544;DHT22;11438;52.044;8.716;2023-12-14T04:21:53;8.70;99.90
22544;DHT22;11438;52.044;8.716;2023-12-14T04:24:18;8.60;99.90
22544;DHT22;11438;52.044;8.716;2023-12-14T04:26:44;8.60;99.90
22544;DHT22;11438;52.044;8.716;2023-12-14T04:29:10;8.60;99.90
22544;DHT22;11438;52.044;8.716;2023-12-14T04:31:35;8.60;99.90
22544;DHT22;11438;52.044;8.716;2023-12-14T04:34:01;8.70;99.90
22544;DHT22;11438;52.044;8.716;2023-12-14T04:36:26;8.70;99.90
22544;DHT22;11438;52.044;8.716;2023-12-14T04:38:52;8.70;99.90
22544;DHT22;11438;52.044;8.716;2023-12-14T04:41:17;8.70;99.90
22544;DHT22;11438;52.044;8.716;2023-12-14T04:43:43;8.70;99.90
22544;DHT22;11438;52.044;8.716;2023-12-14T04:46:08;8.70;99.90
22544;DHT22;11438;52.044;8.716;2023-12-14T04:48:34;8.70;99.90
22544;DHT22;11438;52.044;8.716;2023-12-14T04:50:59;8.70;99.90
22544;DHT22;11438;52.044;8.716;2023-12-14T04:53:25;8.70;99.90
22544;DHT22;11438;52.044;8.716;2023-12-14T04:55:50;8.80;99.90
22544;DHT22;11438;52.044;8.716;2023-12-14T04:58:16;8.80;99.90
22544;DHT22;11438;52.044;8.716;2023-12-14T05:00:41;8.80;99.90
22544;DHT22;11438;52.044;8.716;2023-12-14T05:03:07;8.80;99.90
22544;DHT22;11438;52.044;8.716;2023-12-14T05:05:32;8.80;99.90
22544;DHT22;11438;52.044;8.716;2023-12-14T05:07:58;8.80;99.90
22544;DHT22;11438;52.044;8.716;2023-12-14T05:10:23;8.80;99.90
22544;DHT22;11438;52.044;8.716;2023-12-14T05:12:49;8.80;99.90
22544;DHT22;11438;52.044;8.716;2023-12-14T05:15:14;8.80;99.90
22544;DHT22;11438;52.044;8.716;2023-12-14T05:17:40;8.80;99.90
22544;DHT22;11438;52.044;8.716;2023-12-14T05:20:08;8.80;99.90
22544;DHT22;11438;52.044;8.716;2023-12-14T05:22:34;8.70;99.90
22544;DHT22;11438;52.044;8.716;2023-12-14T05:24:59;8.70;99.90
22544;DHT22;11438;52.044;8.716;2023-12-14T05:27:25;8.70;99.90
22544;DHT22;11438;52.044;8.716;2023-12-14T05:29:50;8.70;99.90
22544;DHT22;11438;52.044;8.716;2023-12-14T05:32:16;8.70;99.90
22544;DHT22;11438;52.044;8.716;2023-12-14T05:34:41;8.60;99.90
22544;DHT22;11438;52.044;8.716;2023-12-14T05:37:07;8.70;99.90
22544;DHT22;11438;52.044;8.716;2023-12-14T05:39:32;8.60;99.90
22544;DHT22;11438;52.044;8.716;2023-12-14T05:41:58;8.60;99.90
22544;DHT22;11438;52.044;8.716;2023-12-14T05:44:24;8.60;99.90
22544;DHT22;11438;52.044;8.716;2023-12-14T05:46:50;8.60;99.90
22544;DHT22;11438;52.044;8.716;2023-12-14T05:49:15;8.50;99.90
22544;DHT22;11438;52.044;8.716;2023-12-14T05:51:41;8.50;99.90
22544;DHT22;11438;52.044;8.716;2023-12-14T05:54:07;8.40;99.90
22544;DHT22;11438;52.044;8.716;2023-12-14T05:56:32;8.40;99.90
22544;DHT22;11438;52.044;8.716;2023-12-14T05:58:58;8.40;99.90
22544;DHT22;11438;52.044;8.716;2023-12-14T06:01:24;8.40;99.90
22544;DHT22;11438;52.044;8.716;2023-12-14T06:03:50;8.40;99.90
22544;DHT22;11438;52.044;8.716;2023-12-14T06:06:15;8.30;99.90
22544;DHT22;11438;52.044;8.716;2023-12-14T06:08:41;8.30;99.90
22544;DHT22;11438;52.044;8.716;2023-12-14T06:11:07;8.30;99.90
22544;DHT22;11438;52.044;8.716;2023-12-14T06:13:33;8.30;99.90
22544;DHT22;11438;52.044;8.716;2023-12-14T06:15:58;8.30;99.90
22544;DHT22;11438;52.044;8.716;2023-12-14T06:18:24;8.30;99.90
22544;DHT22;11438;52.044;8.716;2023-12-14T06:20:50;8.20;99.90
22544;DHT22;11438;52.044;8.716;2023-12-14T06:23:16;8.20;99.90
22544;DHT22;11438;52.044;8.716;2023-12-14T06:25:42;8.20;99.90
22544;DHT22;11438;52.044;8.716;2023-12-14T06:28:08;8.20;99.90
22544;DHT22;11438;52.044;8.716;2023-12-14T06:30:33;8.20;99.90
22544;DHT22;11438;52.044;8.716;2023-12-14T06:32:59;8.20;99.90
22544;DHT22;11438;52.044;8.716;2023-12-14T06:35:24;8.20;99.90
22544;DHT22;11438;52.044;8.716;2023-12-14T06:37:50;8.20;99.90
22544;DHT22;11438;52.044;8.716;2023-12-14T06:40:15;8.20;99.90
22544;DHT22;11438;52.044;8.716;2023-12-14T06:42:41;8.20;99.90
22544;DHT22;11438;52.044;8.716;2023-12-14T06:45:08;8.30;99.90
22544;DHT22;11438;52.044;8.716;2023-12-14T06:47:33;8.30;99.90
22544;DHT22;11438;52.044;8.716;2023-12-14T06:49:59;8.30;99.90
22544;DHT22;11438;52.044;8.716;2023-12-14T06:52:25;8.30;99.90
22544;DHT22;11438;52.044;8.716;2023-12-14T06:54:50;8.30;99.90
22544;DHT22;11438;52.044;8.716;2023-12-14T06:57:16;8.30;99.90
22544;DHT22;11438;52.044;8.716;2023-12-14T06:59:41;8.30;99.90
22544;DHT22;11438;52.044;8.716;2023-12-14T07:02:07;8.30;99.90
22544;DHT22;11438;52.044;8.716;2023-12-14T07:04:32;8.30;99.90
22544;DHT22;11438;52.044;8.716;2023-12-14T07:06:58;8.30;99.90
22544;DHT22;11438;52.044;8.716;2023-12-14T07:09:24;8.30;99.90
22544;DHT22;11438;52.044;8.716;2023-12-14T07:11:49;8.30;99.90
22544;DHT22;11438;52.044;8.716;2023-12-14T07:14:15;8.30;99.90
22544;DHT22;11438;52.044;8.716;2023-12-14T07:16:41;8.30;99.90
22544;DHT22;11438;52.044;8.716;2023-12-14T07:19:07;8.30;99.90
22544;DHT22;11438;52.044;8.716;2023-12-14T07:21:32;8.30;99.90
22544;DHT22;11438;52.044;8.716;2023-12-14T07:23:58;8.30;99.90
22544;DHT22;11438;52.044;8.716;2023-12-14T07:26:24;8.30;99.90
22544;DHT22;11438;52.044;8.716;2023-12-14T07:28:49;8.30;99.90
22544;DHT22;11438;52.044;8.716;2023-12-14T07:31:15;8.30;99.90
22544;DHT22;11438;52.044;8.716;2023-12-14T07:33:40;8.30;99.90
22544;DHT22;11438;52.044;8.716;2023-12-14T07:36:06;8.30;99.90
22544;DHT22;11438;52.044;8.716;2023-12-14T07:38:32;8.30;99.90
22544;DHT22;11438;52.044;8.716;2023-12-14T07:40:57;8.30;99.90
22544;DHT22;11438;52.044;8.716;2023-12-14T07:43:23;8.30;99.90
22544;DHT22;11438;52.044;8.716;2023-12-14T07:45:49;8.30;99.90
22544;DHT22;11438;52.044;8.716;2023-12-14T07:48:15;8.20;99.90
22544;DHT22;11438;52.044;8.716;2023-12-14T07:50:40;8.20;99.90
22544;DHT22;11438;52.044;8.716;2023-12-14T07:53:06;8.20;99.90
22544;DHT22;11438;52.044;8.716;2023-12-14T07:55:31;8.20;99.90
22544;DHT22;11438;52.044;8.716;2023-12-14T07:57:57;8.20;99.90
22544;DHT22;11438;52.044;8.716;2023-12-14T08:00:22;8.20;99.90
22544;DHT22;11438;52.044;8.716;2023-12-14T08:02:48;8.20;99.90
22544;DHT22;11438;52.044;8.716;2023-12-14T08:05:13;8.20;99.90
22544;DHT22;11438;52.044;8.716;2023-12-14T08:07:39;8.20;99.90
22544;DHT22;11438;52.044;8.716;2023-12-14T08:10:04;8.20;99.90
22544;DHT22;11438;52.044;8.716;2023-12-14T08:12:30;8.10;99.90
22544;DHT22;11438;52.044;8.716;2023-12-14T08:14:55;8.10;99.90
22544;DHT22;11438;52.044;8.716;2023-12-14T08:17:21;8.10;99.90
22544;DHT22;11438;52.044;8.716;2023-12-14T08:19:46;8.10;99.90
22544;DHT22;11438;52.044;8.716;2023-12-14T08:22:12;8.10;99.90
22544;DHT22;11438;52.044;8.716;2023-12-14T08:24:44;8.10;99.90
22544;DHT22;11438;52.044;8.716;2023-12-14T08:27:09;8.10;99.90
22544;DHT22;11438;52.044;8.716;2023-12-14T08:29:35;8.10;99.90
22544;DHT22;11438;52.044;8.716;2023-12-14T08:32:00;8.10;99.90
22544;DHT22;11438;52.044;8.716;2023-12-14T08:34:27;8.10;99.90
22544;DHT22;11438;52.044;8.716;2023-12-14T08:36:52;8.10;99.90
22544;DHT22;11438;52.044;8.716;2023-12-14T08:39:18;8.10;99.90
22544;DHT22;11438;52.044;8.716;2023-12-14T08:41:45;8.10;99.90
22544;DHT22;11438;52.044;8.716;2023-12-14T08:44:12;8.10;99.90
22544;DHT22;11438;52.044;8.716;2023-12-14T08:46:42;8.10;99.90
22544;DHT22;11438;52.044;8.716;2023-12-14T08:49:08;8.10;99.90
22544;DHT22;11438;52.044;8.716;2023-12-14T08:51:33;8.00;99.90
22544;DHT22;11438;52.044;8.716;2023-12-14T08:53:58;8.00;99.90
22544;DHT22;11438;52.044;8.716;2023-12-14T08:56:24;8.00;99.90
22544;DHT22;11438;52.044;8.716;2023-12-14T08:58:49;8.00;99.90
22544;DHT22;11438;52.044;8.716;2023-12-14T09:01:22;8.00;99.90
22544;DHT22;11438;52.044;8.716;2023-12-14T09:03:48;8.00;99.90
22544;DHT22;11438;52.044;8.716;2023-12-14T09:06:13;8.00;99.90
22544;DHT22;11438;52.044;8.716;2023-12-14T09:08:40;7.90;99.90
22544;DHT22;11438;52.044;8.716;2023-12-14T09:11:06;8.00;99.90
22544;DHT22;11438;52.044;8.716;2023-12-14T09:13:31;7.90;99.90
22544;DHT22;11438;52.044;8.716;2023-12-14T09:15:57;8.00;99.90
22544;DHT22;11438;52.044;8.716;2023-12-14T09:18:22;7.90;99.90
22544;DHT22;11438;52.044;8.716;2023-12-14T09:20:49;8.00;99.90
22544;DHT22;11438;52.044;8.716;2023-12-14T09:23:15;8.00;99.90
22544;DHT22;11438;52.044;8.716;2023-12-14T09:25:41;8.00;99.90
22544;DHT22;11438;52.044;8.716;2023-12-14T09:28:06;8.00;99.90
22544;DHT22;11438;52.044;8.716;2023-12-14T09:30:32;8.00;99.90
22544;DHT22;11438;52.044;8.716;2023-12-14T09:32:58;8.00;99.90
22544;DHT22;11438;52.044;8.716;2023-12-14T09:35:23;8.00;99.90
22544;DHT22;11438;52.044;8.716;2023-12-14T09:37:49;8.00;99.90
22544;DHT22;11438;52.044;8.716;2023-12-14T09:40:15;8.00;99.90
22544;DHT22;11438;52.044;8.716;2023-12-14T09:42:42;8.00;99.90
22544;DHT22;11438;52.044;8.716;2023-12-14T09:45:08;8.00;99.90
22544;DHT22;11438;52.044;8.716;2023-12-14T09:47:35;8.00;99.90
22544;DHT22;11438;52.044;8.716;2023-12-14T09:50:01;8.00;99.90
22544;DHT22;11438;52.044;8.716;2023-12-14T09:52:26;8.00;99.90
22544;DHT22;11438;52.044;8.716;2023-12-14T09:54:52;8.10;99.90
22544;DHT22;11438;52.044;8.716;2023-12-14T09:57:21;8.10;99.90
22544;DHT22;11438;52.044;8.716;2023-12-14T09:59:53;8.10;99.90
22544;DHT22;11438;52.044;8.716;2023-12-14T10:02:19;8.10;99.90
22544;DHT22;11438;52.044;8.716;2023-12-14T10:04:46;8.10;99.90
22544;DHT22;11438;52.044;8.716;2023-12-14T10:07:12;8.10;99.90
22544;DHT22;11438;52.044;8.716;2023-12-14T10:09:37;8.10;99.90
22544;DHT22;11438;52.044;8.716;2023-12-14T10:12:08;8.10;99.90
22544;DHT22;11438;52.044;8.716;2023-12-14T10:14:35;8.10;99.90
22544;DHT22;11438;52.044;8.716;2023-12-14T10:17:20;8.10;99.90
22544;DHT22;11438;52.044;8.716;2023-12-14T10:19:47;8.10;99.90
22544;DHT22;11438;52.044;8.716;2023-12-14T10:22:14;8.20;99.90
22544;DHT22;11438;52.044;8.716;2023-12-14T10:24:43;8.10;99.90
22544;DHT22;11438;52.044;8.716;2023-12-14T10:27:10;8.10;99.90
22544;DHT22;11438;52.044;8.716;2023-12-14T10:29:39;8.10;99.90
22544;DHT22;11438;52.044;8.716;2023-12-14T10:32:05;8.10;99.90
22544;DHT22;11438;52.044;8.716;2023-12-14T10:34:35;8.20;99.90
22544;DHT22;11438;52.044;8.716;2023-12-14T10:37:02;8.10;99.90
22544;DHT22;11438;52.044;8.716;2023-12-14T10:39:29;8.10;99.90
22544;DHT22;11438;52.044;8.716;2023-12-14T10:41:57;8.20;99.90
22544;DHT22;11438;52.044;8.716;2023-12-14T10:44:27;8.20;99.90
22544;DHT22;11438;52.044;8.716;2023-12-14T10:46:55;8.20;99.90
22544;DHT22;11438;52.044;8.716;2023-12-14T10:49:24;8.20;99.90
22544;DHT22;11438;52.044;8.716;2023-12-14T10:51:52;8.20;99.90
22544;DHT22;11438;52.044;8.716;2023-12-14T10:54:18;8.20;99.90
22544;DHT22;11438;52.044;8.716;2023-12-14T10:56:44;8.20;99.90
22544;DHT22;11438;52.044;8.716;2023-12-14T10:59:10;8.20;99.90
22544;DHT22;11438;52.044;8.716;2023-12-14T11:01:35;8.20;99.90
22544;DHT22;11438;52.044;8.716;2023-12-14T11:04:06;8.20;99.90
22544;DHT22;11438;52.044;8.716;2023-12-14T11:06:34;8.20;99.90
22544;DHT22;11438;52.044;8.716;2023-12-14T11:09:06;8.30;99.90
22544;DHT22;11438;52.044;8.716;2023-12-14T11:11:41;8.30;99.90
22544;DHT22;11438;52.044;8.716;2023-12-14T11:14:11;8.30;99.90
22544;DHT22;11438;52.044;8.716;2023-12-14T11:16:38;8.30;99.90
22544;DHT22;11438;52.044;8.716;2023-12-14T11:24:19;8.30;99.90
22544;DHT22;11438;52.044;8.716;2023-12-14T11:26:44;8.30;99.90
22544;DHT22;11438;52.044;8.716;2023-12-14T11:29:10;8.30;99.90
22544;DHT22;11438;52.044;8.716;2023-12-14T11:31:35;8.30;99.90
22544;DHT22;11438;52.044;8.716;2023-12-14T11:34:01;8.30;99.90
22544;DHT22;11438;52.044;8.716;2023-12-14T11:36:28;8.30;99.90
22544;DHT22;11438;52.044;8.716;2023-12-14T11:38:54;8.40;99.90
22544;DHT22;11438;52.044;8.716;2023-12-14T11:41:21;8.40;99.90
22544;DHT22;11438;52.044;8.716;2023-12-14T11:43:46;8.40;99.90
22544;DHT22;11438;52.044;8.716;2023-12-14T11:46:13;8.40;99.90
22544;DHT22;11438;52.044;8.716;2023-12-14T11:48:39;8.40;99.90
22544;DHT22;11438;52.044;8.716;2023-12-14T11:51:05;8.40;99.90
22544;DHT22;11438;52.044;8.716;2023-12-14T11:53:30;8.40;99.90
22544;DHT22;11438;52.044;8.716;2023-12-14T11:55:56;8.40;99.90
22544;DHT22;11438;52.044;8.716;2023-12-14T11:58:24;8.40;99.90
22544;DHT22;11438;52.044;8.716;2023-12-14T12:00:50;8.40;99.90
22544;DHT22;11438;52.044;8.716;2023-12-14T12:03:17;8.50;99.90
22544;DHT22;11438;52.044;8.716;2023-12-14T12:05:44;8.50;99.90
22544;DHT22;11438;52.044;8.716;2023-12-14T12:08:11;8.50;99.90
22544;DHT22;11438;52.044;8.716;2023-12-14T12:10:38;8.60;99.90
22544;DHT22;11438;52.044;8.716;2023-12-14T12:13:07;8.50;99.90
22544;DHT22;11438;52.044;8.716;2023-12-14T12:15:34;8.60;99.90
22544;DHT22;11438;52.044;8.716;2023-12-14T12:18:03;8.60;99.90
22544;DHT22;11438;52.044;8.716;2023-12-14T12:20:29;8.60;99.90
22544;DHT22;11438;52.044;8.716;2023-12-14T12:22:54;8.70;99.90
22544;DHT22;11438;52.044;8.716;2023-12-14T12:25:20;8.70;99.90
22544;DHT22;11438;52.044;8.716;2023-12-14T12:27:46;8.70;99.90
22544;DHT22;11438;52.044;8.716;2023-12-14T12:30:12;8.80;99.90
22544;DHT22;11438;52.044;8.716;2023-12-14T12:32:38;8.80;99.90
22544;DHT22;11438;52.044;8.716;2023-12-14T12:35:04;8.90;99.90
22544;DHT22;11438;52.044;8.716;2023-12-14T12:37:30;8.90;99.90
22544;DHT22;11438;52.044;8.716;2023-12-14T12:39:55;8.90;99.90
22544;DHT22;11438;52.044;8.716;2023-12-14T12:42:21;9.00;99.90
22544;DHT22;11438;52.044;8.716;2023-12-14T12:44:47;9.00;99.90
22544;DHT22;11438;52.044;8.716;2023-12-14T12:47:12;9.00;99.90
22544;DHT22;11438;52.044;8.716;2023-12-14T12:49:38;9.00;99.90
22544;DHT22;11438;52.044;8.716;2023-12-14T12:52:04;9.00;99.90
22544;DHT22;11438;52.044;8.716;2023-12-14T12:54:31;9.00;99.90
22544;DHT22;11438;52.044;8.716;2023-12-14T12:56:57;9.00;99.90
22544;DHT22;11438;52.044;8.716;2023-12-14T12:59:23;9.00;99.90
22544;DHT22;11438;52.044;8.716;2023-12-14T13:01:48;9.00;99.90
22544;DHT22;11438;52.044;8.716;2023-12-14T13:04:21;9.00;99.90
22544;DHT22;11438;52.044;8.716;2023-12-14T13:06:50;9.00;99.90
22544;DHT22;11438;52.044;8.716;2023-12-14T13:09:16;9.00;99.90
22544;DHT22;11438;52.044;8.716;2023-12-14T13:11:45;9.00;99.90
22544;DHT22;11438;52.044;8.716;2023-12-14T13:14:11;9.00;99.90
22544;DHT22;11438;52.044;8.716;2023-12-14T13:16:37;9.00;99.90
22544;DHT22;11438;52.044;8.716;2023-12-14T13:19:04;9.00;99.90
22544;DHT22;11438;52.044;8.716;2023-12-14T13:21:32;9.10;99.90
22544;DHT22;11438;52.044;8.716;2023-12-14T13:23:59;9.10;99.90
22544;DHT22;11438;52.044;8.716;2023-12-14T13:26:24;9.10;99.90
22544;DHT22;11438;52.044;8.716;2023-12-14T13:28:51;9.20;99.90
22544;DHT22;11438;52.044;8.716;2023-12-14T13:31:17;9.20;99.90
22544;DHT22;11438;52.044;8.716;2023-12-14T13:33:42;9.20;99.90
22544;DHT22;11438;52.044;8.716;2023-12-14T13:36:08;9.20;99.90
22544;DHT22;11438;52.044;8.716;2023-12-14T13:38:34;9.20;99.90
22544;DHT22;11438;52.044;8.716;2023-12-14T13:41:01;9.30;99.90
22544;DHT22;11438;52.044;8.716;2023-12-14T13:43:28;9.30;99.90
22544;DHT22;11438;52.044;8.716;2023-12-14T13:45:54;9.30;99.90
22544;DHT22;11438;52.044;8.716;2023-12-14T13:48:26;9.30;99.90
22544;DHT22;11438;52.044;8.716;2023-12-14T13:50:55;9.30;99.90
22544;DHT22;11438;52.044;8.716;2023-12-14T13:53:21;9.30;99.90
22544;DHT22;11438;52.044;8.716;2023-12-14T13:55:47;9.30;99.90
22544;DHT22;11438;52.044;8.716;2023-12-14T13:58:16;9.30;99.90
22544;DHT22;11438;52.044;8.716;2023-12-14T14:00:43;9.30;99.90
22544;DHT22;11438;52.044;8.716;2023-12-14T14:03:09;9.30;99.90
22544;DHT22;11438;52.044;8.716;2023-12-14T14:05:35;9.30;99.90
22544;DHT22;11438;52.044;8.716;2023-12-14T14:08:01;9.30;99.90
22544;DHT22;11438;52.044;8.716;2023-12-14T14:10:27;9.30;99.90
22544;DHT22;11438;52.044;8.716;2023-12-14T14:12:52;9.30;99.90
22544;DHT22;11438;52.044;8.716;2023-12-14T14:15:18;9.30;99.90
22544;DHT22;11438;52.044;8.716;2023-12-14T14:17:45;9.30;99.90
22544;DHT22;11438;52.044;8.716;2023-12-14T14:20:13;9.30;99.90
22544;DHT22;11438;52.044;8.716;2023-12-14T14:22:39;9.30;99.90
22544;DHT22;11438;52.044;8.716;2023-12-14T14:25:05;9.30;99.90
22544;DHT22;11438;52.044;8.716;2023-12-14T14:27:34;9.20;99.90
22544;DHT22;11438;52.044;8.716;2023-12-14T14:30:00;9.20;99.90
22544;DHT22;11438;52.044;8.716;2023-12-14T14:32:25;9.20;99.90
22544;DHT22;11438;52.044;8.716;2023-12-14T14:34:51;9.20;99.90
22544;DHT22;11438;52.044;8.716;2023-12-14T14:37:18;9.20;99.90
22544;DHT22;11438;52.044;8.716;2023-12-14T14:39:43;9.20;99.90
22544;DHT22;11438;52.044;8.716;2023-12-14T14:42:09;9.20;99.90
22544;DHT22;11438;52.044;8.716;2023-12-14T14:44:35;9.20;99.90
22544;DHT22;11438;52.044;8.716;2023-12-14T14:47:02;9.20;99.90
22544;DHT22;11438;52.044;8.716;2023-12-14T14:49:28;9.20;99.90
22544;DHT22;11438;52.044;8.716;2023-12-14T14:51:54;9.10;99.90
22544;DHT22;11438;52.044;8.716;2023-12-14T14:54:19;9.20;99.90
22544;DHT22;11438;52.044;8.716;2023-12-14T14:56:45;9.10;99.90
22544;DHT22;11438;52.044;8.716;2023-12-14T14:59:11;9.10;99.90
22544;DHT22;11438;52.044;8.716;2023-12-14T15:01:37;9.10;99.90
22544;DHT22;11438;52.044;8.716;2023-12-14T15:04:03;9.10;99.90
22544;DHT22;11438;52.044;8.716;2023-12-14T15:06:28;9.10;99.90
22544;DHT22;11438;52.044;8.716;2023-12-14T15:08:54;9.10;99.90
22544;DHT22;11438;52.044;8.716;2023-12-14T15:11:19;9.10;99.90
22544;DHT22;11438;52.044;8.716;2023-12-14T15:13:45;9.10;99.90
22544;DHT22;11438;52.044;8.716;2023-12-14T15:16:10;9.00;99.90
22544;DHT22;11438;52.044;8.716;2023-12-14T15:18:37;9.00;99.90
22544;DHT22;11438;52.044;8.716;2023-12-14T15:21:07;9.00;99.90
22544;DHT22;11438;52.044;8.716;2023-12-14T15:23:33;9.00;99.90
22544;DHT22;11438;52.044;8.716;2023-12-14T15:25:58;9.00;99.90
22544;DHT22;11438;52.044;8.716;2023-12-14T15:28:24;9.00;99.90
22544;DHT22;11438;52.044;8.716;2023-12-14T15:30:49;9.00;99.90
22544;DHT22;11438;52.044;8.716;2023-12-14T15:33:15;9.00;99.90
22544;DHT22;11438;52.044;8.716;2023-12-14T15:35:40;9.00;99.90
22544;DHT22;11438;52.044;8.716;2023-12-14T15:38:06;9.00;99.90
22544;DHT22;11438;52.044;8.716;2023-12-14T15:40:31;8.90;99.90
22544;DHT22;11438;52.044;8.716;2023-12-14T15:42:57;8.90;99.90